CheckWX is a tool to help pilots better visualize weather data.  It is not intended as a substitute for an official pre-flight weather briefing.

10:14:47 UTC

ETIK METAR
Illesheim Air Base Heliport
Storck Barracks, Germany
Current

19 mins ago

ETIK 260956Z AUTO 29013KT 9999 OVC024 10/07 A2995 RMK AO2 RAB33E37 SLP144 P0000 T01000072 $
Observed
Apr-26 @ 09:56 UTC
Wind
  • 290° at 13 KTS
Visibility
10,000+ meters
Flight Rules
MVFR
Cloud Levels
  • Overcast at 2,400' AGL
Temperature
10°C / 50°F
Dewpoint
C / 45°F
Humidity
82%
Altimeter
29.95" Hg
Pressure
1014.22 hPa
Current Rain
0.01"
Previous

38 mins ago

ETIK 260937Z AUTO 28014KT 9999 BKN021 OVC026 10/07 A2994 RMK AO2 RAB33E37 BKN V OVC SLP140 $
Observed
Apr-26 @ 09:37 UTC
Wind
  • 280° at 14 KTS
Visibility
10,000+ meters
Flight Rules
MVFR
Cloud Levels
  • Broken at 2,100' AGL
  • Overcast at 2,600' AGL
Temperature
10°C / 50°F
Dewpoint
C / 45°F
Humidity
82%
Altimeter
29.94" Hg
Pressure
1013.92 hPa
Previous

42 mins ago

ETIK 260933Z AUTO 27014KT 9999 -RA BKN021 OVC026 10/08 A2994 RMK AO2 RAB33 BKN V OVC SLP140 $
Observed
Apr-26 @ 09:33 UTC
Wind
  • 270° at 14 KTS
Visibility
10,000+ meters
Flight Rules
MVFR
Conditions
Light Rain
Cloud Levels
  • Broken at 2,100' AGL
  • Overcast at 2,600' AGL
Temperature
10°C / 50°F
Dewpoint
C / 46°F
Humidity
88%
Altimeter
29.94" Hg
Pressure
1013.92 hPa